Time;durP1;ratioP1;P1;durP2;ratioP2;P2;SDS_P1;SDS_P2;PMS_P1;PMS_P2;Temp;Humidity;BMP_temperature;BMP_pressure;BME280_temperature;BME280_humidity;BME280_pressure;Samples;Min_cycle;Max_cycle;Signal;HPM_P1;HPM_P2
2022/05/24 00:01:23;;;;;;;12.05;6.50;;;13.10;99.90;;;;;;4953940;28;20129;-85
2022/05/24 00:03:49;;;;;;;14.30;6.50;;;13.10;99.90;;;;;;4948188;28;20043;-84
2022/05/24 00:06:15;;;;;;;15.23;7.15;;;13.10;99.90;;;;;;4952010;28;20070;-85
2022/05/24 00:08:41;;;;;;;13.55;7.00;;;13.10;99.90;;;;;;4962832;28;20046;-85
2022/05/24 00:11:07;;;;;;;10.18;6.05;;;13.10;99.90;;;;;;4962779;28;20042;-84
2022/05/24 00:13:33;;;;;;;9.55;6.40;;;13.10;99.90;;;;;;4950333;28;20052;-84
2022/05/24 00:15:59;;;;;;;10.43;6.95;;;13.00;99.90;;;;;;4950717;28;20034;-84
2022/05/24 00:18:27;;;;;;;12.98;7.70;;;13.10;99.90;;;;;;4936001;28;20459;-84
2022/05/24 00:20:56;;;;;;;11.60;7.32;;;13.00;99.90;;;;;;4966350;28;20034;-84
2022/05/24 00:23:24;;;;;;;11.75;6.85;;;13.00;99.90;;;;;;4943245;28;20656;-85
2022/05/24 00:25:56;;;;;;;10.95;7.05;;;13.00;99.90;;;;;;4946981;28;20408;-85
2022/05/24 00:28:26;;;;;;;9.75;6.30;;;13.00;99.90;;;;;;4951191;28;20047;-84
2022/05/24 00:30:52;;;;;;;11.93;7.18;;;13.00;99.90;;;;;;4965357;28;20042;-85
2022/05/24 00:33:18;;;;;;;12.88;6.78;;;13.00;99.90;;;;;;4952229;28;20050;-85
2022/05/24 00:35:45;;;;;;;11.20;6.78;;;12.90;99.90;;;;;;4966738;28;20078;-85
2022/05/24 00:38:16;;;;;;;10.70;6.63;;;12.90;99.90;;;;;;4964629;28;21065;-85
2022/05/24 00:40:44;;;;;;;10.20;6.35;;;13.00;99.90;;;;;;4952721;28;20035;-84
2022/05/24 00:43:26;;;;;;;15.50;7.78;;;12.90;99.90;;;;;;4948344;28;20038;-85
2022/05/24 00:45:56;;;;;;;10.20;7.22;;;12.90;99.90;;;;;;4948053;28;20050;-85
2022/05/24 00:48:48;;;;;;;11.73;6.93;;;12.90;99.90;;;;;;4946247;28;20042;-84
2022/05/24 00:51:20;;;;;;;12.07;8.17;;;12.90;99.90;;;;;;4969694;28;20129;-84
2022/05/24 00:53:52;;;;;;;13.35;9.85;;;12.80;99.90;;;;;;4976870;28;20043;-85
2022/05/24 00:56:23;;;;;;;19.52;12.75;;;12.80;99.90;;;;;;4973383;28;20413;-83
2022/05/24 00:58:52;;;;;;;21.77;13.45;;;12.90;99.90;;;;;;4950775;28;20502;-85
2022/05/24 01:01:41;;;;;;;20.92;14.27;;;12.80;99.90;;;;;;4959992;28;20456;-85
2022/05/24 01:04:10;;;;;;;20.92;14.10;;;12.80;99.90;;;;;;4956132;28;20125;-85
2022/05/24 01:06:36;;;;;;;22.60;16.17;;;12.80;99.90;;;;;;4961950;28;20495;-85
2022/05/24 01:09:14;;;;;;;23.55;16.05;;;12.80;99.90;;;;;;4962445;28;20412;-85
2022/05/24 01:11:47;;;;;;;25.88;17.38;;;12.80;99.90;;;;;;4958289;28;20042;-85
2022/05/24 01:14:15;;;;;;;26.60;17.67;;;12.80;99.90;;;;;;4974902;28;20038;-84
2022/05/24 01:16:41;;;;;;;25.63;17.70;;;12.80;99.90;;;;;;4946256;28;20045;-84
2022/05/24 01:19:14;;;;;;;24.67;16.25;;;12.80;99.90;;;;;;4957646;28;20059;-84
2022/05/24 01:21:40;;;;;;;29.83;17.23;;;12.80;99.90;;;;;;4971435;28;20038;-85
2022/05/24 01:24:26;;;;;;;20.60;15.75;;;12.80;99.90;;;;;;4943632;28;20121;-84
2022/05/24 01:26:56;;;;;;;20.55;15.88;;;12.80;99.90;;;;;;4949485;28;20053;-84
2022/05/24 01:29:25;;;;;;;20.15;14.63;;;12.80;99.90;;;;;;4956644;28;20046;-84
2022/05/24 01:37:21;;;;;;;22.27;14.98;;;12.70;99.90;;;;;;4976606;28;20047;-84
2022/05/24 01:39:51;;;;;;;24.83;14.98;;;12.70;99.90;;;;;;4956695;28;20492;-84
2022/05/24 01:42:17;;;;;;;23.00;13.75;;;12.50;99.90;;;;;;4949725;28;20039;-83
2022/05/24 01:44:52;;;;;;;19.83;12.35;;;12.50;99.90;;;;;;4948200;28;20511;-84
2022/05/24 01:47:19;;;;;;;22.83;13.38;;;12.50;99.90;;;;;;4950262;28;20411;-84
2022/05/24 01:49:49;;;;;;;20.00;13.13;;;12.40;99.90;;;;;;4955852;28;20125;-84
2022/05/24 01:52:23;;;;;;;19.20;13.00;;;12.40;99.90;;;;;;4947504;28;20074;-84
2022/05/24 01:54:54;;;;;;;19.67;13.13;;;12.30;99.90;;;;;;4976891;28;20049;-84
2022/05/24 01:57:33;;;;;;;21.10;13.85;;;12.30;99.90;;;;;;4957721;28;20046;-84
2022/05/24 02:00:03;;;;;;;20.92;13.77;;;12.30;99.90;;;;;;4954800;28;20433;-84
2022/05/24 02:02:28;;;;;;;23.38;13.32;;;12.30;99.90;;;;;;4986760;28;20405;-84
2022/05/24 02:04:54;;;;;;;19.40;13.38;;;12.20;99.90;;;;;;4952847;28;20045;-84
2022/05/24 02:07:24;;;;;;;23.42;13.70;;;12.20;99.90;;;;;;4958975;28;20117;-84
2022/05/24 02:09:52;;;;;;;19.30;12.70;;;12.20;99.90;;;;;;4952104;28;20295;-84
2022/05/24 02:12:37;;;;;;;17.45;12.82;;;12.10;99.90;;;;;;4966082;28;20137;-84
2022/05/24 02:15:05;;;;;;;17.25;12.90;;;12.20;99.90;;;;;;4954265;28;20042;-84
2022/05/24 02:17:42;;;;;;;21.85;14.00;;;12.10;99.90;;;;;;4952218;28;20046;-84
2022/05/24 02:20:16;;;;;;;20.42;13.55;;;12.10;99.90;;;;;;4981902;28;20057;-83
2022/05/24 02:22:42;;;;;;;28.73;15.50;;;12.20;99.90;;;;;;4968714;28;20113;-84
2022/05/24 02:25:18;;;;;;;24.70;16.38;;;12.10;99.90;;;;;;4956853;28;20038;-84
2022/05/24 02:27:45;;;;;;;29.02;17.05;;;12.10;99.90;;;;;;4968793;28;20065;-83
2022/05/24 02:30:21;;;;;;;27.95;17.98;;;12.20;99.90;;;;;;4967369;28;20289;-83
2022/05/24 02:32:46;;;;;;;30.25;20.38;;;12.20;99.90;;;;;;4955827;28;20113;-83
2022/05/24 02:35:13;;;;;;;34.78;21.15;;;12.30;99.90;;;;;;4956428;28;20484;-83
2022/05/24 02:37:39;;;;;;;36.95;21.90;;;12.30;99.90;;;;;;4953538;28;20038;-84
2022/05/24 02:42:50;;;;;;;40.75;24.38;;;12.30;99.90;;;;;;4964262;28;20118;-84
2022/05/24 02:45:16;;;;;;;41.85;24.75;;;12.40;99.90;;;;;;4969337;28;20041;-83
2022/05/24 02:47:42;;;;;;;40.15;23.33;;;12.40;99.90;;;;;;4968044;28;20096;-83
2022/05/24 02:50:11;;;;;;;41.78;24.08;;;12.40;99.90;;;;;;4954342;28;20046;-84
2022/05/24 02:52:40;;;;;;;46.13;25.00;;;12.40;99.90;;;;;;4949198;28;20043;-83
2022/05/24 02:55:07;;;;;;;45.72;25.30;;;12.50;99.90;;;;;;4969195;28;20584;-84
2022/05/24 02:57:33;;;;;;;43.08;25.60;;;12.50;99.90;;;;;;4952197;28;20411;-84
2022/05/24 02:59:59;;;;;;;43.58;24.98;;;12.50;99.90;;;;;;4964934;28;20074;-83
2022/05/24 03:02:25;;;;;;;44.55;26.73;;;12.50;99.90;;;;;;4966683;28;20114;-83
2022/05/24 03:04:51;;;;;;;43.45;25.65;;;12.60;99.90;;;;;;4954262;28;20038;-83
2022/05/24 03:10:01;;;;;;;47.55;27.23;;;12.60;99.90;;;;;;4967945;28;20061;-83
2022/05/24 03:15:12;;;;;;;46.20;29.75;;;12.60;99.90;;;;;;4970367;28;20053;-83
2022/05/24 03:17:37;;;;;;;44.40;26.98;;;12.70;99.90;;;;;;4956221;28;20125;-83
2022/05/24 03:20:04;;;;;;;46.53;29.20;;;12.70;99.90;;;;;;4962306;28;20264;-84
2022/05/24 03:22:30;;;;;;;46.30;28.45;;;12.70;99.90;;;;;;4955413;28;20042;-83
2022/05/24 03:24:55;;;;;;;54.67;30.98;;;12.70;99.90;;;;;;4964444;28;20049;-83
2022/05/24 03:27:21;;;;;;;49.40;29.30;;;12.80;99.90;;;;;;4941651;28;20047;-83
2022/05/24 03:29:48;;;;;;;55.03;29.20;;;12.80;99.90;;;;;;4935802;28;20039;-84
2022/05/24 03:32:16;;;;;;;52.70;29.95;;;12.80;99.90;;;;;;4961965;28;20045;-83
2022/05/24 03:34:42;;;;;;;53.70;32.13;;;12.80;99.90;;;;;;4970269;28;20095;-83
2022/05/24 03:37:08;;;;;;;45.92;28.75;;;12.90;99.90;;;;;;4950760;28;20038;-84
2022/05/24 03:39:34;;;;;;;49.63;30.83;;;12.90;99.90;;;;;;4954610;28;20038;-84
2022/05/24 03:42:00;;;;;;;55.85;30.27;;;12.90;99.90;;;;;;4984130;28;20086;-83
2022/05/24 03:44:26;;;;;;;49.00;30.17;;;12.90;99.90;;;;;;4952344;28;20527;-83
2022/05/24 03:46:53;;;;;;;50.50;31.10;;;13.00;99.90;;;;;;4974088;28;20038;-83
2022/05/24 03:49:19;;;;;;;51.28;30.67;;;13.00;99.90;;;;;;4953437;28;20038;-84
2022/05/24 03:51:45;;;;;;;46.70;30.27;;;13.00;99.90;;;;;;4974798;28;20089;-83
2022/05/24 03:54:12;;;;;;;53.67;31.77;;;13.00;99.90;;;;;;4953211;28;20069;-83
2022/05/24 03:57:59;;;;;;;44.80;28.55;;;13.00;99.90;;;;;;4951062;28;20046;-84
2022/05/24 03:59:26;;;;;;;45.33;29.20;;;13.00;99.90;;;;;;4962541;28;20050;-83
2022/05/24 04:01:51;;;;;;;47.03;28.35;;;13.00;99.90;;;;;;4953089;28;20050;-85
2022/05/24 04:04:17;;;;;;;42.40;27.67;;;13.10;99.90;;;;;;4961124;28;20038;-83
2022/05/24 04:06:43;;;;;;;48.33;31.30;;;13.10;99.90;;;;;;4953792;28;20034;-84
2022/05/24 04:09:08;;;;;;;44.97;28.85;;;13.10;99.90;;;;;;4927593;28;20084;-84
2022/05/24 04:11:34;;;;;;;42.67;27.75;;;13.10;99.90;;;;;;4953573;28;20543;-83
2022/05/24 04:14:00;;;;;;;46.45;29.02;;;13.10;99.90;;;;;;4968328;28;20444;-83
2022/05/24 04:16:26;;;;;;;41.20;27.00;;;13.10;99.90;;;;;;4961109;28;20049;-83
2022/05/24 04:18:52;;;;;;;41.50;26.58;;;13.10;99.90;;;;;;4965753;28;20055;-83
2022/05/24 04:21:18;;;;;;;39.83;25.92;;;13.10;99.90;;;;;;4952373;28;20129;-83
2022/05/24 04:23:43;;;;;;;48.70;27.30;;;13.10;99.90;;;;;;4970778;28;20034;-83
2022/05/24 04:26:09;;;;;;;40.90;26.42;;;13.20;99.90;;;;;;4951348;28;20450;-83
2022/05/24 04:28:35;;;;;;;42.83;27.52;;;13.20;99.90;;;;;;4952174;28;20034;-83
2022/05/24 04:31:01;;;;;;;44.08;27.20;;;13.20;99.90;;;;;;4938346;28;20181;-82
2022/05/24 04:33:27;;;;;;;47.03;27.77;;;13.20;99.90;;;;;;4952155;28;20121;-83
2022/05/24 04:35:52;;;;;;;45.67;27.88;;;13.20;99.90;;;;;;4951001;28;20140;-83
2022/05/24 04:38:18;;;;;;;42.70;27.27;;;13.20;99.90;;;;;;4952857;28;20070;-83
2022/05/24 04:43:28;;;;;;;41.85;27.50;;;13.20;99.90;;;;;;4965714;28;20077;-83
2022/05/24 04:45:55;;;;;;;42.20;28.77;;;13.20;99.90;;;;;;4950209;28;20093;-82
2022/05/24 04:48:21;;;;;;;38.85;26.08;;;13.20;99.90;;;;;;4950343;28;20045;-82
2022/05/24 04:50:55;;;;;;;48.22;28.88;;;13.20;99.90;;;;;;4978498;28;20034;-84
2022/05/24 04:53:22;;;;;;;40.45;26.73;;;13.20;99.90;;;;;;4954546;28;20034;-82
2022/05/24 04:55:49;;;;;;;47.53;28.08;;;13.20;99.90;;;;;;4960774;28;20700;-83
2022/05/24 04:58:19;;;;;;;46.08;28.92;;;13.30;99.90;;;;;;4953107;28;20042;-82
2022/05/24 05:00:47;;;;;;;49.47;28.85;;;13.20;99.90;;;;;;4938523;28;20081;-83
2022/05/24 05:03:17;;;;;;;45.05;28.35;;;13.20;99.90;;;;;;4960243;28;20037;-83
2022/05/24 05:05:44;;;;;;;39.70;26.42;;;13.20;99.90;;;;;;4961274;28;20046;-83
2022/05/24 05:08:10;;;;;;;38.00;26.45;;;13.20;99.90;;;;;;4952315;28;20049;-81
2022/05/24 05:10:37;;;;;;;34.63;24.20;;;13.20;99.90;;;;;;4965521;28;20050;-83
2022/05/24 05:13:04;;;;;;;37.55;22.95;;;13.20;99.90;;;;;;4984184;28;20073;-83
2022/05/24 05:15:31;;;;;;;37.00;24.00;;;13.20;99.90;;;;;;4983341;28;20081;-80
2022/05/24 05:18:11;;;;;;;33.78;21.33;;;13.10;99.90;;;;;;4962300;28;20073;-80
2022/05/24 05:20:39;;;;;;;38.30;22.60;;;13.10;99.90;;;;;;4951076;28;20125;-80
2022/05/24 05:23:06;;;;;;;36.08;22.35;;;13.10;99.90;;;;;;4971094;28;20129;-82
2022/05/24 05:25:33;;;;;;;35.17;21.33;;;13.00;99.90;;;;;;4972600;28;20050;-80
2022/05/24 05:27:58;;;;;;;36.13;22.95;;;13.00;99.90;;;;;;4967600;28;20125;-83
2022/05/24 05:33:08;;;;;;;35.30;21.85;;;13.00;99.90;;;;;;4967834;28;20043;-83
2022/05/24 05:35:34;;;;;;;37.95;23.13;;;13.00;99.90;;;;;;4938829;28;20039;-83
2022/05/24 05:38:00;;;;;;;34.30;22.02;;;12.90;99.90;;;;;;4963022;28;20046;-81
2022/05/24 05:40:26;;;;;;;35.58;22.38;;;12.90;99.90;;;;;;4958390;28;20074;-81
2022/05/24 05:42:51;;;;;;;36.75;21.95;;;12.90;99.90;;;;;;4958415;28;20070;-80
2022/05/24 05:45:17;;;;;;;32.90;21.67;;;12.90;99.90;;;;;;4950304;28;20038;-79
2022/05/24 05:47:43;;;;;;;32.88;21.42;;;12.90;99.90;;;;;;4939153;28;20078;-79
2022/05/24 05:50:09;;;;;;;38.83;21.98;;;12.90;99.90;;;;;;4965448;28;20058;-79
2022/05/24 05:52:36;;;;;;;39.33;22.45;;;12.90;99.90;;;;;;4972475;28;20436;-78
2022/05/24 05:55:02;;;;;;;36.28;21.48;;;12.90;99.90;;;;;;4954694;28;20050;-79
2022/05/24 05:57:27;;;;;;;37.60;23.02;;;12.90;99.90;;;;;;4935121;28;20050;-79
2022/05/24 05:59:53;;;;;;;35.13;22.27;;;13.00;99.90;;;;;;4984907;28;20042;-79
2022/05/24 06:02:19;;;;;;;35.63;21.63;;;13.00;99.90;;;;;;4953998;28;20046;-79
2022/05/24 06:04:45;;;;;;;36.10;22.13;;;13.00;99.90;;;;;;4958184;28;20499;-79
2022/05/24 06:07:10;;;;;;;31.55;21.00;;;12.90;99.90;;;;;;4948571;28;20081;-79
2022/05/24 06:09:37;;;;;;;34.80;22.75;;;12.90;99.90;;;;;;4957118;28;20054;-78
2022/05/24 06:12:03;;;;;;;30.83;20.75;;;12.90;99.90;;;;;;4970584;28;20054;-79
2022/05/24 06:14:29;;;;;;;32.17;21.38;;;12.90;99.90;;;;;;4970283;28;20042;-80
2022/05/24 06:16:55;;;;;;;30.13;22.20;;;12.90;99.90;;;;;;4970495;28;20173;-79
2022/05/24 06:19:21;;;;;;;34.78;21.40;;;13.00;99.90;;;;;;4970282;28;20046;-79
2022/05/24 06:21:47;;;;;;;31.75;21.92;;;13.00;99.90;;;;;;4969642;28;20053;-79
2022/05/24 06:24:14;;;;;;;34.28;20.80;;;13.10;99.90;;;;;;4955282;28;20060;-78
2022/05/24 06:26:40;;;;;;;33.30;21.80;;;13.20;99.90;;;;;;4968910;28;20077;-77
2022/05/24 06:29:06;;;;;;;36.33;20.95;;;13.20;99.90;;;;;;4954111;28;20145;-79
2022/05/24 06:31:32;;;;;;;31.85;21.10;;;13.10;99.90;;;;;;4955954;28;20129;-80
2022/05/24 06:33:57;;;;;;;31.85;21.48;;;13.10;99.90;;;;;;4972479;28;20043;-79
2022/05/24 06:36:24;;;;;;;30.83;20.40;;;13.20;99.90;;;;;;4946970;28;20031;-79
2022/05/24 06:38:49;;;;;;;32.88;19.85;;;13.20;99.90;;;;;;4953264;28;20169;-79
2022/05/24 06:41:15;;;;;;;31.58;19.75;;;13.20;99.90;;;;;;4930962;28;20129;-79
2022/05/24 06:43:41;;;;;;;29.27;19.42;;;13.20;99.90;;;;;;4946867;28;20043;-81
2022/05/24 06:46:10;;;;;;;34.95;20.42;;;13.30;99.90;;;;;;4940592;28;20034;-81
2022/05/24 06:48:37;;;;;;;25.38;18.02;;;13.30;99.90;;;;;;4937555;28;20916;-80
2022/05/24 06:51:15;;;;;;;29.90;19.08;;;13.30;99.90;;;;;;4952196;28;20042;-80
2022/05/24 06:53:43;;;;;;;27.33;17.30;;;13.30;99.90;;;;;;4982270;28;20070;-81
2022/05/24 06:56:09;;;;;;;31.67;19.10;;;13.30;99.90;;;;;;4964861;28;20051;-82
2022/05/24 06:58:36;;;;;;;28.98;19.08;;;13.20;99.90;;;;;;4961697;28;20043;-81
2022/05/24 07:03:48;;;;;;;26.73;17.75;;;13.20;99.90;;;;;;4964880;28;20046;-85
2022/05/24 07:06:15;;;;;;;27.88;17.73;;;13.20;99.90;;;;;;4951101;28;20086;-86
2022/05/24 07:08:42;;;;;;;22.83;16.63;;;13.10;99.90;;;;;;4936262;28;20057;-86
2022/05/24 07:11:09;;;;;;;25.73;17.50;;;13.10;99.90;;;;;;4963880;28;20050;-86
2022/05/24 07:13:34;;;;;;;25.83;17.15;;;13.10;99.90;;;;;;4978883;28;20046;-85
2022/05/24 07:16:00;;;;;;;21.58;16.98;;;13.10;99.90;;;;;;4947390;28;20046;-86
2022/05/24 07:18:26;;;;;;;23.20;16.27;;;13.10;99.90;;;;;;4950965;28;21339;-86
2022/05/24 07:20:52;;;;;;;22.55;15.52;;;13.10;99.90;;;;;;4963040;28;20058;-85
2022/05/24 07:23:20;;;;;;;25.48;16.45;;;13.10;99.90;;;;;;4934054;28;20050;-85
2022/05/24 07:25:47;;;;;;;24.80;16.10;;;13.10;99.90;;;;;;4947940;28;20855;-86
2022/05/24 07:28:18;;;;;;;28.55;16.38;;;13.10;99.90;;;;;;4961364;28;20054;-86
2022/05/24 07:30:46;;;;;;;23.70;16.20;;;13.20;99.90;;;;;;4952442;28;20038;-94
2022/05/24 07:33:12;;;;;;;24.15;14.65;;;13.10;99.90;;;;;;4932844;28;20310;-90
2022/05/24 07:35:39;;;;;;;27.40;16.55;;;13.20;99.90;;;;;;4937161;28;20455;-92
2022/05/24 07:38:07;;;;;;;22.50;15.25;;;13.20;99.90;;;;;;4940659;28;20835;-92
2022/05/24 07:46:08;;;;;;;21.15;15.45;;;13.30;99.90;;;;;;4953315;28;20140;-88
2022/05/24 07:48:34;;;;;;;18.88;15.35;;;13.30;99.90;;;;;;4946112;28;20050;-88
2022/05/24 07:51:01;;;;;;;23.52;15.30;;;13.40;99.90;;;;;;4965515;28;20035;-88
2022/05/24 07:53:27;;;;;;;23.00;15.02;;;13.40;99.90;;;;;;4964572;28;20503;-90
2022/05/24 07:55:57;;;;;;;22.30;14.63;;;13.40;99.90;;;;;;4936870;28;20046;-92
2022/05/24 07:58:24;;;;;;;24.40;14.98;;;13.40;99.90;;;;;;4938902;28;20038;-89
2022/05/24 08:00:50;;;;;;;25.67;15.07;;;13.50;99.90;;;;;;4939366;28;20046;-92
2022/05/24 08:03:16;;;;;;;20.40;13.63;;;13.50;99.90;;;;;;4924367;28;20037;-88
2022/05/24 08:05:42;;;;;;;23.83;14.10;;;13.40;99.90;;;;;;4940054;28;20100;-92
2022/05/24 08:08:09;;;;;;;22.27;13.88;;;13.40;99.90;;;;;;4923984;28;20471;-94
2022/05/24 08:10:37;;;;;;;20.48;13.02;;;13.40;99.90;;;;;;4927103;28;20131;-90
2022/05/24 08:13:06;;;;;;;20.13;14.02;;;13.40;99.90;;;;;;4939216;28;20062;-89
2022/05/24 08:15:32;;;;;;;19.65;11.93;;;13.40;99.90;;;;;;4950499;28;20158;-90
2022/05/24 08:17:58;;;;;;;14.10;11.10;;;13.40;99.90;;;;;;4937821;28;20117;-88
2022/05/24 08:20:25;;;;;;;16.38;11.40;;;13.50;99.90;;;;;;4948825;28;20059;-89
2022/05/24 08:22:51;;;;;;;21.13;12.95;;;13.60;99.90;;;;;;4905223;28;20049;-88
2022/05/24 08:25:17;;;;;;;17.23;12.07;;;13.60;99.90;;;;;;4908796;28;20035;-94
2022/05/24 08:27:44;;;;;;;21.67;12.85;;;13.80;99.90;;;;;;4930184;28;20118;-94
2022/05/24 08:30:13;;;;;;;16.17;11.70;;;13.80;99.90;;;;;;4952154;28;20880;-93
2022/05/24 08:32:40;;;;;;;18.38;11.27;;;13.80;99.90;;;;;;4927796;28;20042;-89
2022/05/24 08:35:08;;;;;;;17.13;10.60;;;13.90;99.90;;;;;;4927185;28;20615;-91
2022/05/24 08:37:33;;;;;;;17.20;10.73;;;13.90;99.90;;;;;;4928299;28;20117;-91
2022/05/24 08:39:59;;;;;;;17.98;10.88;;;13.90;99.90;;;;;;4926124;28;20125;-90
2022/05/24 08:42:43;;;;;;;14.73;10.50;;;13.90;99.90;;;;;;4926023;28;20086;-90
2022/05/24 08:48:32;;;;;;;13.52;10.10;;;14.00;99.90;;;;;;4940537;28;20055;-92
2022/05/24 08:51:23;;;;;;;12.88;10.32;;;14.00;99.90;;;;;;4926072;28;20109;-96
2022/05/24 08:53:52;;;;;;;15.13;10.00;;;14.00;99.90;;;;;;4928908;28;20126;-93
2022/05/24 08:56:24;;;;;;;17.17;10.48;;;14.10;99.90;;;;;;4945763;28;20038;-96
2022/05/24 08:58:59;;;;;;;;;;;14.40;99.90;;;;;;4941933;28;20118;-95
2022/05/24 09:01:32;;;;;;;10.13;8.65;;;14.30;99.90;;;;;;4954838;28;20331;-94
2022/05/24 09:03:59;;;;;;;13.38;8.63;;;14.30;99.90;;;;;;4925614;28;20053;-95
2022/05/24 09:06:53;;;;;;;14.55;9.23;;;14.30;99.90;;;;;;4925687;28;20077;-92
2022/05/24 09:09:48;;;;;;;14.02;9.02;;;14.50;99.90;;;;;;4940884;28;20069;-93
2022/05/24 09:12:42;;;;;;;15.48;9.20;;;14.90;99.90;;;;;;4942651;28;20054;-93
2022/05/24 09:15:15;;;;;;;12.65;7.63;;;15.20;99.90;;;;;;4927441;28;20444;-95
2022/05/24 09:18:07;;;;;;;10.75;8.13;;;15.20;99.90;;;;;;4926776;28;20075;-89
2022/05/24 09:20:40;;;;;;;10.65;7.60;;;15.20;99.90;;;;;;4917085;28;20050;-93
2022/05/24 09:23:15;;;;;;;15.85;7.97;;;15.10;99.90;;;;;;4944040;28;20308;-91
2022/05/24 09:26:08;;;;;;;10.93;6.70;;;15.20;99.90;;;;;;4943489;28;20043;-93
2022/05/24 09:28:48;;;;;;;;;;;15.60;99.90;;;;;;4923961;28;20058;-90
2022/05/24 09:31:37;;;;;;;12.48;6.43;;;15.60;99.90;;;;;;4938661;28;19932;-95
2022/05/24 09:34:17;;;;;;;10.30;6.00;;;15.60;99.90;;;;;;4910067;28;20047;-92
2022/05/24 09:36:53;;;;;;;11.20;6.28;;;15.70;99.90;;;;;;4941850;28;20046;-93
2022/05/24 09:39:32;;;;;;;7.68;5.97;;;15.70;99.90;;;;;;4943093;28;20039;-94
2022/05/24 09:42:30;;;;;;;9.75;6.38;;;15.60;99.90;;;;;;4943146;28;20043;-95
2022/05/24 09:45:20;;;;;;;13.15;6.70;;;15.40;99.90;;;;;;4943459;28;20058;-95
2022/05/24 09:47:54;;;;;;;9.18;6.22;;;15.20;99.90;;;;;;4925519;28;20047;-89
2022/05/24 09:50:30;;;;;;;7.68;6.28;;;15.10;99.90;;;;;;4929431;28;20504;-89
2022/05/24 09:53:26;;;;;;;11.23;6.35;;;15.20;99.90;;;;;;4929187;28;20118;-86
2022/05/24 09:56:05;;;;;;;9.20;6.20;;;15.20;99.90;;;;;;4925772;28;20034;-94
2022/05/24 09:58:54;;;;;;;10.55;6.65;;;15.30;99.90;;;;;;4944514;28;20095;-95
2022/05/24 10:01:37;;;;;;;11.70;6.68;;;15.30;99.90;;;;;;4922182;28;20051;-91
2022/05/24 10:04:14;;;;;;;;;;;15.20;99.90;;;;;;4928986;28;20042;-90
2022/05/24 10:06:42;;;;;;;6.53;5.65;;;15.10;99.90;;;;;;4941985;28;20338;-91
2022/05/24 10:09:44;;;;;;;12.50;6.68;;;15.00;99.90;;;;;;4945241;28;20053;-91
2022/05/24 10:12:37;;;;;;;7.50;4.83;;;14.90;99.90;;;;;;4941540;28;20058;-89
2022/05/24 10:15:09;;;;;;;4.25;3.22;;;14.60;99.90;;;;;;4932256;28;20062;-86
2022/05/24 10:17:47;;;;;;;4.18;3.20;;;14.30;99.90;;;;;;4944848;28;20039;-88
2022/05/24 10:20:20;;;;;;;6.88;3.40;;;14.20;99.90;;;;;;4941013;28;20089;-86
2022/05/24 10:23:01;;;;;;;5.78;3.83;;;13.80;99.90;;;;;;4977979;28;20039;-95
2022/05/24 10:25:35;;;;;;;5.78;3.83;;;13.60;99.90;;;;;;4954536;28;20034;-91
2022/05/24 10:28:12;;;;;;;5.93;4.22;;;13.50;99.90;;;;;;4968130;28;20049;-91
2022/05/24 10:31:03;;;;;;;6.28;4.72;;;13.70;99.90;;;;;;4956264;28;20419;-90
2022/05/24 10:39:23;;;;;;;6.80;5.38;;;14.60;99.90;;;;;;4967098;28;20046;-92
2022/05/24 10:42:07;;;;;;;9.20;6.70;;;14.60;99.90;;;;;;4958865;28;20034;-91
2022/05/24 10:45:00;;;;;;;7.75;6.70;;;15.10;99.90;;;;;;4953810;28;20045;-90
2022/05/24 10:47:45;;;;;;;12.40;7.00;;;15.50;99.90;;;;;;4970207;28;20754;-93
2022/05/24 10:50:31;;;;;;;8.23;5.97;;;15.80;99.90;;;;;;4969907;28;20038;-93
2022/05/24 10:53:21;;;;;;;7.35;6.38;;;15.30;99.90;;;;;;4979334;28;20400;-91
2022/05/24 10:55:57;;;;;;;6.68;4.55;;;15.00;99.90;;;;;;4972646;28;20062;-88
2022/05/24 10:58:25;;;;;;;5.05;3.67;;;14.70;99.90;;;;;;4964052;28;20066;-89
2022/05/24 11:01:04;;;;;;;4.60;3.30;;;14.30;99.90;;;;;;4948872;28;20084;-90
2022/05/24 11:03:34;;;;;;;3.78;2.70;;;14.10;99.90;;;;;;4949356;28;21263;-95
2022/05/24 11:06:04;;;;;;;3.33;2.22;;;13.70;99.90;;;;;;4945874;28;20514;-92
2022/05/24 11:08:46;;;;;;;2.33;1.85;;;13.60;99.90;;;;;;4951466;28;20089;-95
2022/05/24 11:11:36;;;;;;;2.25;2.05;;;13.50;99.90;;;;;;4944016;28;20117;-90
2022/05/24 11:14:15;;;;;;;3.00;2.47;;;13.40;99.90;;;;;;4960425;28;20085;-90
2022/05/24 11:16:46;;;;;;;2.58;1.90;;;13.50;99.90;;;;;;4948616;28;20038;-92
2022/05/24 11:19:24;;;;;;;4.80;2.47;;;13.50;99.90;;;;;;4950935;28;20041;-91
2022/05/24 11:22:01;;;;;;;4.80;2.50;;;13.50;99.90;;;;;;4979549;28;20125;-91
2022/05/24 11:25:05;;;;;;;4.30;2.92;;;13.40;99.90;;;;;;4975444;28;20109;-90
2022/05/24 11:28:06;;;;;;;3.88;3.42;;;13.50;99.90;;;;;;4961785;28;20046;-91
2022/05/24 11:30:38;;;;;;;4.88;3.33;;;13.50;99.90;;;;;;4942619;28;20050;-90
2022/05/24 11:33:05;;;;;;;4.00;3.25;;;13.70;99.90;;;;;;4946429;28;20042;-91
2022/05/24 11:35:52;;;;;;;7.20;3.30;;;13.80;99.90;;;;;;4956739;28;20506;-90
2022/05/24 11:38:23;;;;;;;3.13;2.50;;;13.80;99.90;;;;;;4954177;28;20568;-89
2022/05/24 11:40:57;;;;;;;2.47;2.25;;;13.80;99.90;;;;;;4968773;28;20034;-90
2022/05/24 11:43:35;;;;;;;2.38;2.17;;;13.60;99.90;;;;;;4954587;28;20515;-90
2022/05/24 11:46:06;;;;;;;3.72;2.28;;;13.50;99.90;;;;;;4963657;28;20109;-92
2022/05/24 11:48:46;;;;;;;3.47;2.38;;;13.30;99.90;;;;;;4963677;28;20434;-92
2022/05/24 11:51:39;;;;;;;2.92;2.47;;;13.30;99.90;;;;;;4963658;28;20086;-92
2022/05/24 11:54:21;;;;;;;2.95;2.53;;;13.20;99.90;;;;;;4965783;28;20077;-94
2022/05/24 11:56:53;;;;;;;3.88;2.67;;;13.10;99.90;;;;;;4962872;28;20042;-93
2022/05/24 11:59:41;;;;;;;3.85;3.10;;;13.20;99.90;;;;;;4978087;28;20034;-93
2022/05/24 12:02:26;;;;;;;4.35;3.17;;;13.30;99.90;;;;;;4963029;28;20061;-93
2022/05/24 12:07:54;;;;;;;3.13;2.83;;;13.60;99.90;;;;;;4963641;28;20049;-91
2022/05/24 12:10:26;;;;;;;4.57;3.15;;;13.80;99.90;;;;;;4977866;28;20077;-91
2022/05/24 12:13:03;;;;;;;5.75;3.15;;;13.90;99.90;;;;;;4947918;28;20050;-91
2022/05/24 12:15:29;;;;;;;4.70;3.20;;;13.80;99.90;;;;;;4961089;28;20058;-93
2022/05/24 12:17:58;;;;;;;5.68;3.67;;;13.80;99.90;;;;;;4975515;28;20030;-92
2022/05/24 12:20:33;;;;;;;4.03;3.60;;;13.80;99.90;;;;;;4959461;28;20050;-92
2022/05/24 12:23:08;;;;;;;4.10;3.70;;;13.80;99.90;;;;;;4941822;28;20034;-93
2022/05/24 12:25:58;;;;;;;5.57;4.07;;;13.80;99.90;;;;;;4948822;28;20039;-92
2022/05/24 12:28:48;;;;;;;6.72;3.60;;;13.80;99.90;;;;;;4963613;28;20133;-91
2022/05/24 12:31:14;;;;;;;5.30;3.53;;;13.80;99.90;;;;;;4975618;28;20053;-91
2022/05/24 12:33:59;;;;;;;6.43;3.60;;;13.80;99.90;;;;;;4959576;28;20121;-93
2022/05/24 12:36:46;;;;;;;5.72;3.88;;;13.70;99.90;;;;;;4975345;28;20121;-93
2022/05/24 12:39:14;;;;;;;5.35;3.28;;;13.80;99.90;;;;;;4976139;28;20478;-93
2022/05/24 12:41:46;;;;;;;4.05;3.00;;;14.10;99.90;;;;;;4956408;28;20480;-94
2022/05/24 12:44:18;;;;;;;3.63;2.97;;;14.40;99.90;;;;;;4977395;28;20066;-95
2022/05/24 12:47:02;;;;;;;2.92;2.40;;;14.70;99.90;;;;;;4976601;28;20045;-94
2022/05/24 12:49:31;;;;;;;4.35;2.30;;;15.10;99.90;;;;;;4948074;28;20050;-95
2022/05/24 12:52:09;;;;;;;2.78;2.25;;;15.20;99.90;;;;;;4976859;28;20046;-95
2022/05/24 12:54:40;;;;;;;3.13;2.30;;;15.30;99.90;;;;;;4961451;28;20045;-94
2022/05/24 12:57:17;;;;;;;8.10;2.78;;;15.20;99.90;;;;;;4974750;28;20093;-93
2022/05/24 12:59:50;;;;;;;12.70;4.72;;;15.10;99.90;;;;;;4961025;28;20112;-94
2022/05/24 13:02:28;;;;;;;5.13;2.88;;;15.00;99.90;;;;;;4976766;28;20121;-95
2022/05/24 13:04:58;;;;;;;2.92;2.42;;;15.00;99.90;;;;;;4975940;28;20045;-92
2022/05/24 13:07:45;;;;;;;2.92;2.65;;;15.10;99.90;;;;;;4960262;28;20106;-94
2022/05/24 13:10:19;;;;;;;3.65;3.10;;;15.10;99.90;;;;;;4960555;28;20050;-94
2022/05/24 13:12:55;;;;;;;3.30;2.88;;;15.10;99.90;;;;;;4960299;28;20038;-95
2022/05/24 13:15:38;;;;;;;5.45;2.75;;;15.30;99.90;;;;;;4959600;28;20073;-94
2022/05/24 13:18:16;;;;;;;5.93;3.10;;;15.50;99.90;;;;;;4975438;28;20060;-94
2022/05/24 13:20:43;;;;;;;3.72;3.30;;;15.80;99.90;;;;;;4974036;28;20058;-93
2022/05/24 13:23:15;;;;;;;3.05;2.80;;;16.10;99.90;;;;;;4962460;28;20038;-95
2022/05/24 13:25:53;;;;;;;3.15;2.85;;;16.20;99.90;;;;;;4959746;28;20074;-95
2022/05/24 13:28:34;;;;;;;3.80;3.30;;;16.30;99.90;;;;;;4976204;28;20089;-94
2022/05/24 13:34:13;;;;;;;3.50;2.35;;;16.50;99.90;;;;;;4976427;28;20057;-94
2022/05/24 13:37:02;;;;;;;3.10;2.00;;;16.30;99.90;;;;;;4976372;28;20097;-94
2022/05/24 13:39:43;;;;;;;2.22;1.65;;;16.10;99.90;;;;;;4959541;28;20073;-92
2022/05/24 13:42:10;;;;;;;2.50;1.20;;;16.00;99.90;;;;;;4959011;28;20045;-92